createdAt,value
2023-03-20T00:00:58.000Z,0
2023-03-20T00:02:25.960Z,0
2023-03-20T00:03:42.395Z,0
2023-03-20T00:04:57.617Z,0
2023-03-20T00:06:02.000Z,0
2023-03-20T00:07:29.992Z,0
2023-03-20T00:08:45.945Z,0
2023-03-20T00:10:02.139Z,0
2023-03-20T00:11:18.333Z,0
2023-03-20T00:12:34.776Z,0
2023-03-20T00:13:50.968Z,0
2023-03-20T00:15:06.914Z,0
2023-03-20T00:15:39.000Z,0
2023-03-20T00:16:23.348Z,0
2023-03-20T00:17:39.556Z,0
2023-03-20T00:18:44.000Z,0
2023-03-20T00:20:11.689Z,0
2023-03-20T00:22:43.096Z,0
2023-03-20T00:23:59.290Z,0
2023-03-20T00:25:15.485Z,0
2023-03-20T00:25:49.000Z,0
2023-03-20T00:26:31.926Z,0
2023-03-20T00:27:48.117Z,0
2023-03-20T00:29:04.069Z,0
2023-03-20T00:30:20.264Z,0
2023-03-20T00:32:52.654Z,0
2023-03-20T00:34:09.099Z,0
2023-03-20T00:35:25.286Z,0
2023-03-20T00:36:30.000Z,0
2023-03-20T00:37:46.000Z,0
2023-03-20T00:39:12.890Z,0
2023-03-20T00:40:17.000Z,0
2023-03-20T00:41:33.000Z,0
2023-03-20T00:43:01.475Z,0
2023-03-20T00:44:17.674Z,0
2023-03-20T00:45:33.619Z,0
2023-03-20T00:46:49.814Z,0
2023-03-20T00:48:06.010Z,0
2023-03-20T00:49:22.204Z,0
2023-03-20T00:50:38.400Z,0
2023-03-20T00:51:43.000Z,0
2023-03-20T00:53:10.792Z,0
2023-03-20T00:54:15.000Z,0
2023-03-20T00:55:43.183Z,0
2023-03-20T00:56:59.378Z,0
2023-03-20T00:58:14.840Z,0
2023-03-20T00:59:30.785Z,0
2023-03-20T01:00:46.981Z,0
2023-03-20T01:01:51.000Z,0
2023-03-20T01:03:19.372Z,0
2023-03-20T01:04:35.815Z,0
2023-03-20T01:05:52.016Z,0
2023-03-20T01:07:08.200Z,0
2023-03-20T01:08:24.154Z,0
2023-03-20T01:09:29.000Z,0
2023-03-20T01:10:45.000Z,0
2023-03-20T01:12:12.741Z,0
2023-03-20T01:13:29.181Z,0
2023-03-20T01:14:44.148Z,0
2023-03-20T01:16:00.344Z,0
2023-03-20T01:17:16.540Z,0
2023-03-20T01:18:32.736Z,0
2023-03-20T01:19:49.179Z,0
2023-03-20T01:21:05.127Z,0
2023-03-20T01:22:10.000Z,0
2023-03-20T01:23:26.000Z,0
2023-03-20T01:24:53.970Z,0
2023-03-20T01:25:58.000Z,0
2023-03-20T01:27:14.000Z,0
2023-03-20T01:28:42.544Z,0
2023-03-20T01:29:58.746Z,0
2023-03-20T01:31:14.940Z,0
2023-03-20T01:32:18.000Z,0
2023-03-20T01:33:03.000Z,0
2023-03-20T01:33:46.100Z,0
2023-03-20T01:34:51.000Z,0
2023-03-20T01:36:18.740Z,0
2023-03-20T01:37:34.686Z,0
2023-03-20T01:40:07.078Z,0
2023-03-20T01:41:12.000Z,0
2023-03-20T01:42:39.718Z,0
2023-03-20T01:43:55.665Z,0
2023-03-20T01:45:11.860Z,0
2023-03-20T01:46:28.056Z,0
2023-03-20T01:47:44.252Z,0
2023-03-20T01:48:48.000Z,0
2023-03-20T01:50:15.905Z,0
2023-03-20T01:51:32.095Z,0
2023-03-20T01:52:36.000Z,0
2023-03-20T01:53:53.000Z,0
2023-03-20T01:55:09.000Z,0
2023-03-20T01:56:36.887Z,0
2023-03-20T01:57:53.088Z,0
2023-03-20T01:59:09.028Z,0
2023-03-20T02:00:25.473Z,0
2023-03-20T02:01:41.419Z,0
2023-03-20T02:02:57.615Z,0
2023-03-20T02:04:14.055Z,0
2023-03-20T02:05:18.000Z,0
2023-03-20T02:06:45.462Z,0
2023-03-20T02:07:50.000Z,0
2023-03-20T02:09:06.000Z,0
2023-03-20T02:10:22.000Z,0
2023-03-20T02:11:38.000Z,0
2023-03-20T02:13:06.439Z,0
2023-03-20T02:14:11.000Z,0
2023-03-20T02:15:27.000Z,0
2023-03-20T02:16:43.000Z,0
2023-03-20T02:17:59.000Z,0
2023-03-20T02:19:27.173Z,0
2023-03-20T02:20:32.000Z,0
2023-03-20T02:21:59.811Z,0
2023-03-20T02:23:04.000Z,0
2023-03-20T02:24:19.000Z,0
2023-03-20T02:25:35.000Z,0
2023-03-20T02:26:52.000Z,0
2023-03-20T02:28:19.804Z,0
2023-03-20T02:29:36.001Z,0
2023-03-20T02:31:25.996Z,0
2023-03-20T02:32:08.386Z,0
2023-03-20T02:33:13.000Z,0
2023-03-20T02:34:29.000Z,0
2023-03-20T02:35:45.000Z,0
2023-03-20T02:37:01.000Z,0
2023-03-20T02:38:17.000Z,0
2023-03-20T02:39:45.319Z,0
2023-03-20T02:41:00.778Z,0
2023-03-20T02:42:05.000Z,0
2023-03-20T02:43:21.000Z,0
2023-03-20T02:44:49.358Z,0
2023-03-20T02:46:05.313Z,0
2023-03-20T02:47:21.754Z,0
2023-03-20T02:48:26.000Z,0
2023-03-20T02:49:53.900Z,0
2023-03-20T02:51:10.342Z,0
2023-03-20T02:52:26.535Z,0
2023-03-20T02:53:42.487Z,0
2023-03-20T02:54:58.683Z,0
2023-03-20T02:56:14.878Z,0
2023-03-20T02:57:30.090Z,0
2023-03-20T02:58:46.284Z,0
2023-03-20T03:00:02.481Z,0
2023-03-20T03:01:07.000Z,0
2023-03-20T03:02:23.000Z,0
2023-03-20T03:03:51.310Z,0
2023-03-20T03:05:07.263Z,0
2023-03-20T03:06:23.458Z,0
2023-03-20T03:07:39.654Z,0
2023-03-20T03:08:56.089Z,0
2023-03-20T03:10:12.046Z,0
2023-03-20T03:11:17.000Z,0
2023-03-20T03:12:44.682Z,0
2023-03-20T03:13:59.895Z,0
2023-03-20T03:15:15.844Z,0
2023-03-20T03:16:20.000Z,0
2023-03-20T03:17:48.236Z,0
2023-03-20T03:19:04.679Z,0
2023-03-20T03:20:20.872Z,0
2023-03-20T03:21:25.000Z,0
2023-03-20T03:22:53.018Z,0
2023-03-20T03:24:09.214Z,0
2023-03-20T03:25:14.000Z,0
2023-03-20T03:26:41.859Z,0
2023-03-20T03:27:57.801Z,0
2023-03-20T03:29:13.996Z,0
2023-03-20T03:30:29.454Z,0
2023-03-20T03:31:45.408Z,0
2023-03-20T03:33:01.605Z,0
2023-03-20T03:34:06.000Z,0
2023-03-20T03:35:34.242Z,0
2023-03-20T03:36:50.435Z,0
2023-03-20T03:38:06.387Z,0
2023-03-20T03:39:22.827Z,0
2023-03-20T03:40:27.000Z,0
2023-03-20T03:41:55.221Z,0
2023-03-20T03:43:11.169Z,0
2023-03-20T03:44:27.615Z,0
2023-03-20T03:45:43.561Z,0
2023-03-20T03:46:47.000Z,0
2023-03-20T03:48:14.968Z,0
2023-03-20T03:49:31.418Z,0
2023-03-20T03:50:47.359Z,0
2023-03-20T03:52:03.795Z,0
2023-03-20T03:53:20.025Z,0
2023-03-20T03:53:53.000Z,0
2023-03-20T03:54:24.000Z,0
2023-03-20T03:55:52.387Z,0
2023-03-20T03:56:25.000Z,0
2023-03-20T03:57:08.587Z,0
2023-03-20T03:58:24.533Z,0
2023-03-20T04:00:57.169Z,0
2023-03-20T04:03:28.573Z,0
2023-03-20T04:04:33.000Z,0
2023-03-20T04:05:49.000Z,0
2023-03-20T04:07:05.000Z,0
2023-03-20T04:08:21.000Z,0
2023-03-20T04:09:49.309Z,0
2023-03-20T04:10:54.000Z,0
2023-03-20T04:12:10.000Z,0
2023-03-20T04:13:37.896Z,0
2023-03-20T04:14:42.000Z,0
2023-03-20T04:16:10.287Z,0
2023-03-20T04:17:15.000Z,0
2023-03-20T04:18:42.679Z,0
2023-03-20T04:19:46.000Z,0
2023-03-20T04:21:14.333Z,0
2023-03-20T04:22:19.000Z,0
2023-03-20T04:23:46.726Z,0
2023-03-20T04:24:51.000Z,0
2023-03-20T04:26:19.110Z,0
2023-03-20T04:27:35.307Z,0
2023-03-20T04:28:40.000Z,0
2023-03-20T04:30:07.698Z,0
2023-03-20T04:31:23.914Z,0
2023-03-20T04:32:28.000Z,0
2023-03-20T04:33:56.286Z,0
2023-03-20T04:35:12.490Z,0
2023-03-20T04:36:27.449Z,0
2023-03-20T04:37:43.893Z,0
2023-03-20T04:39:00.091Z,0
2023-03-20T04:40:16.283Z,0
2023-03-20T04:41:20.000Z,0
2023-03-20T04:42:48.676Z,0
2023-03-20T04:44:04.886Z,0
2023-03-20T04:45:09.000Z,0
2023-03-20T04:46:37.258Z,0
2023-03-20T04:47:53.210Z,0
2023-03-20T04:49:09.406Z,0
2023-03-20T04:50:14.000Z,0
2023-03-20T04:51:41.798Z,0
2023-03-20T04:52:57.009Z,0
2023-03-20T04:54:13.205Z,0
2023-03-20T04:55:29.649Z,0
2023-03-20T04:56:45.596Z,0
2023-03-20T04:58:02.056Z,0
2023-03-20T04:59:18.231Z,0
2023-03-20T05:00:22.000Z,0
2023-03-20T05:01:50.622Z,0
2023-03-20T05:02:55.000Z,0
2023-03-20T05:04:22.770Z,0
2023-03-20T05:05:39.216Z,0
2023-03-20T05:06:55.161Z,0
2023-03-20T05:08:00.000Z,4
2023-03-20T05:09:26.569Z,0
2023-03-20T05:10:42.765Z,4
2023-03-20T05:11:58.961Z,4
2023-03-20T05:13:03.000Z,8
2023-03-20T05:14:31.352Z,8
2023-03-20T05:15:47.798Z,8
2023-03-20T05:17:03.746Z,8
2023-03-20T05:18:08.000Z,12
2023-03-20T05:19:36.380Z,12
2023-03-20T05:20:41.000Z,16
2023-03-20T05:21:57.000Z,20
2023-03-20T05:23:24.972Z,24
2023-03-20T05:24:40.920Z,24
2023-03-20T05:25:57.366Z,32
2023-03-20T05:27:12.329Z,40
2023-03-20T05:28:17.000Z,56
2023-03-20T05:29:33.000Z,68
2023-03-20T05:31:00.916Z,80
2023-03-20T05:32:17.357Z,96
2023-03-20T05:33:33.552Z,112
2023-03-20T05:34:49.505Z,128
2023-03-20T05:36:05.700Z,152
2023-03-20T05:37:22.145Z,164
2023-03-20T05:38:38.331Z,188
2023-03-20T05:39:43.000Z,208
2023-03-20T05:40:59.000Z,236
2023-03-20T05:42:26.679Z,268
2023-03-20T05:43:42.134Z,304
2023-03-20T05:44:46.000Z,340
2023-03-20T05:46:03.000Z,372
2023-03-20T05:47:19.000Z,416
2023-03-20T05:48:35.000Z,472
2023-03-20T05:50:02.870Z,516
2023-03-20T05:51:19.066Z,568
2023-03-20T05:52:35.262Z,624
2023-03-20T05:53:51.705Z,684
2023-03-20T05:55:07.653Z,736
2023-03-20T05:56:23.848Z,788
2023-03-20T05:57:28.000Z,836
2023-03-20T05:58:56.239Z,888
2023-03-20T06:00:11.452Z,944
2023-03-20T06:01:16.000Z,972
2023-03-20T06:02:44.100Z,996
2023-03-20T06:04:00.292Z,1024
2023-03-20T06:05:16.236Z,1060
2023-03-20T06:06:32.680Z,1112
2023-03-20T06:07:48.627Z,1164
2023-03-20T06:09:04.822Z,1216
2023-03-20T06:10:09.000Z,1276
2023-03-20T06:11:25.000Z,1328
2023-03-20T06:12:53.412Z,1360
2023-03-20T06:13:58.000Z,1372
2023-03-20T06:15:25.804Z,1376
2023-03-20T06:16:41.016Z,1388
2023-03-20T06:17:57.471Z,1392
2023-03-20T06:19:13.651Z,1388
2023-03-20T06:20:29.604Z,1392
2023-03-20T06:21:45.799Z,1400
2023-03-20T06:22:50.000Z,1396
2023-03-20T06:23:35.000Z,1564
2023-03-20T06:24:06.000Z,1388
2023-03-20T06:25:34.387Z,1392
2023-03-20T06:26:50.837Z,1424
2023-03-20T06:28:06.780Z,1484
2023-03-20T06:30:39.172Z,1684
2023-03-20T06:31:44.000Z,1832
2023-03-20T06:33:10.580Z,2000
2023-03-20T06:34:15.000Z,2196
2023-03-20T06:35:42.973Z,2436
2023-03-20T06:36:47.000Z,2620
2023-03-20T06:37:32.000Z,3256
2023-03-20T06:38:04.000Z,2724
2023-03-20T06:39:20.000Z,2768
2023-03-20T06:40:48.013Z,2848
2023-03-20T06:41:52.000Z,3020
2023-03-20T06:44:36.586Z,3492
2023-03-20T06:45:41.000Z,3612
2023-03-20T06:47:08.986Z,3544
2023-03-20T06:48:24.932Z,3440
2023-03-20T06:49:40.143Z,3472
2023-03-20T06:50:45.000Z,3568
2023-03-20T06:51:30.000Z,4500
2023-03-20T06:52:12.778Z,3780
2023-03-20T06:53:17.000Z,4072
2023-03-20T06:54:45.174Z,4320
2023-03-20T06:56:01.123Z,4488
2023-03-20T06:56:34.000Z,4260
2023-03-20T06:58:33.514Z,4540
2023-03-20T06:59:49.709Z,4528
2023-03-20T07:00:54.000Z,4412
2023-03-20T07:03:38.297Z,4092
2023-03-20T07:04:43.000Z,3856
2023-03-20T07:06:09.705Z,3716
2023-03-20T07:07:26.149Z,3552
2023-03-20T07:08:42.097Z,3492
2023-03-20T07:09:58.293Z,3512
2023-03-20T07:11:14.489Z,3540
2023-03-20T07:12:30.684Z,3452
2023-03-20T07:13:46.880Z,3320
2023-03-20T07:14:51.000Z,3156
2023-03-20T07:16:19.271Z,3132
2023-03-20T07:17:35.466Z,3272
2023-03-20T07:18:51.663Z,3588
2023-03-20T07:20:08.111Z,4076
2023-03-20T07:20:40.000Z,5324
2023-03-20T07:21:24.055Z,4392
2023-03-20T07:22:27.000Z,4436
2023-03-20T07:23:55.462Z,4604
2023-03-20T07:25:11.657Z,4968
2023-03-20T07:27:01.000Z,7184
2023-03-20T07:27:32.000Z,5712
2023-03-20T07:29:00.246Z,6064
2023-03-20T07:30:05.000Z,6260
2023-03-20T07:31:32.637Z,6764
2023-03-20T07:34:05.276Z,7468
2023-03-20T07:35:21.224Z,7460
2023-03-20T07:36:37.420Z,7428
2023-03-20T07:37:42.000Z,7404
2023-03-20T07:39:09.812Z,7372
2023-03-20T07:40:13.000Z,7312
2023-03-20T07:41:41.220Z,7200
2023-03-20T07:42:46.000Z,6940
2023-03-20T07:44:13.612Z,6612
2023-03-20T07:45:28.829Z,6320
2023-03-20T07:46:45.025Z,6088
2023-03-20T07:48:01.221Z,5892
2023-03-20T07:49:17.417Z,5748
2023-03-20T07:50:33.614Z,5672
2023-03-20T07:51:49.811Z,5612
2023-03-20T07:52:54.000Z,5572
2023-03-20T07:54:22.203Z,5588
2023-03-20T07:55:27.000Z,5596
2023-03-20T07:56:54.843Z,5636
2023-03-20T07:58:10.790Z,5712
2023-03-20T07:59:26.986Z,5676
2023-03-20T08:00:43.181Z,5696
2023-03-20T08:01:59.378Z,5768
2023-03-20T08:03:14.590Z,5864
2023-03-20T08:04:30.787Z,5920
2023-03-20T08:05:35.000Z,5988
2023-03-20T08:07:03.178Z,6044
2023-03-20T08:08:08.000Z,6044
2023-03-20T08:09:35.570Z,6012
2023-03-20T08:10:52.072Z,5952
2023-03-20T08:11:56.000Z,5936
2023-03-20T08:13:12.000Z,5976
2023-03-20T08:14:40.353Z,6036
2023-03-20T08:15:56.548Z,6108
2023-03-20T08:17:12.744Z,6184
2023-03-20T08:18:17.000Z,6284
2023-03-20T08:19:45.135Z,6372
2023-03-20T08:21:00.598Z,6496
2023-03-20T08:22:16.543Z,6656
2023-03-20T08:23:32.987Z,6996
2023-03-20T08:24:48.936Z,7280
2023-03-20T08:25:53.000Z,7456
2023-03-20T08:27:10.000Z,7648
2023-03-20T08:28:37.524Z,7828
2023-03-20T08:29:53.967Z,7944
2023-03-20T08:30:27.000Z,7816
2023-03-20T08:31:10.164Z,7916
2023-03-20T08:31:43.000Z,7688
2023-03-20T08:32:14.000Z,7904
2023-03-20T08:33:42.551Z,7940
2023-03-20T08:34:58.503Z,7892
2023-03-20T08:38:34.000Z,7520
2023-03-20T08:39:51.000Z,7400
2023-03-20T08:41:18.497Z,7308
2023-03-20T08:42:34.948Z,7296
2023-03-20T08:43:50.888Z,7344
2023-03-20T08:45:07.329Z,7420
2023-03-20T08:46:11.000Z,7524
2023-03-20T08:47:39.477Z,7588
2023-03-20T08:48:55.673Z,7644
2023-03-20T08:50:11.869Z,7816
2023-03-20T08:51:16.000Z,8064
2023-03-20T08:52:44.260Z,8196
2023-03-20T08:53:16.000Z,8608
2023-03-20T08:54:00.455Z,8272
2023-03-20T08:55:15.912Z,8372
2023-03-20T08:56:20.000Z,8460
2023-03-20T08:57:48.060Z,8544
2023-03-20T09:00:09.000Z,8656
2023-03-20T09:01:36.900Z,8708
2023-03-20T09:02:41.000Z,8824
2023-03-20T09:03:57.000Z,9016
2023-03-20T09:04:42.000Z,10404
2023-03-20T09:05:25.488Z,9220
2023-03-20T09:06:41.432Z,9480
2023-03-20T09:07:57.629Z,9748
2023-03-20T09:08:30.000Z,10544
2023-03-20T09:09:02.000Z,10056
2023-03-20T09:11:33.000Z,10664
2023-03-20T09:13:01.679Z,10716
2023-03-20T09:15:33.820Z,10268
2023-03-20T09:16:07.000Z,10592
2023-03-20T09:16:50.015Z,10084
2023-03-20T09:18:06.211Z,10080
2023-03-20T09:18:39.000Z,10576
2023-03-20T09:19:22.406Z,10244
2023-03-20T09:20:38.602Z,10456
2023-03-20T09:23:10.994Z,10648
2023-03-20T09:25:43.386Z,10468
2023-03-20T09:26:59.832Z,10584
2023-03-20T09:28:15.777Z,10676
2023-03-20T09:29:19.000Z,10752
2023-03-20T09:30:47.451Z,10804
2023-03-20T09:32:03.380Z,10780
2023-03-20T09:33:19.576Z,10668
2023-03-20T09:34:35.771Z,10564
2023-03-20T09:35:51.967Z,10520
2023-03-20T09:36:56.000Z,10496
2023-03-20T09:38:24.615Z,10476
2023-03-20T09:39:40.807Z,10436
2023-03-20T09:40:56.752Z,10392
2023-03-20T09:42:13.194Z,10364
2023-03-20T09:43:29.143Z,10380
2023-03-20T09:44:45.338Z,10496
2023-03-20T09:46:00.551Z,10832
2023-03-20T09:46:34.000Z,10964
2023-03-20T09:47:05.000Z,11240
2023-03-20T09:48:32.942Z,11568
2023-03-20T09:49:49.385Z,11408
2023-03-20T09:50:54.000Z,11056
2023-03-20T09:53:37.725Z,10596
2023-03-20T09:54:42.000Z,10400
2023-03-20T09:55:58.000Z,10704
2023-03-20T09:57:26.564Z,10892
2023-03-20T09:58:42.499Z,10124
2023-03-20T09:59:15.000Z,10964
2023-03-20T09:59:58.693Z,10028
2023-03-20T10:01:15.134Z,10660
2023-03-20T10:02:18.000Z,11276
2023-03-20T10:03:34.000Z,11372
2023-03-20T10:06:18.679Z,10868
2023-03-20T10:07:23.000Z,11048
2023-03-20T10:08:51.066Z,10928
2023-03-20T10:10:07.259Z,10872
2023-03-20T10:11:23.452Z,9972
2023-03-20T10:11:57.000Z,10888
2023-03-20T10:12:39.646Z,9428
2023-03-20T10:13:55.840Z,9936
2023-03-20T10:15:00.000Z,10756
2023-03-20T10:15:44.000Z,10692
2023-03-20T10:16:28.227Z,10904
2023-03-20T10:17:00.000Z,10692
2023-03-20T10:19:00.864Z,10820
2023-03-20T10:20:04.000Z,10752
2023-03-20T10:24:04.405Z,10744
2023-03-20T10:25:09.000Z,10860
2023-03-20T10:26:36.792Z,10964
2023-03-20T10:27:53.232Z,11052
2023-03-20T10:29:09.179Z,11204
2023-03-20T10:30:25.620Z,11364
2023-03-20T10:31:41.566Z,11432
2023-03-20T10:32:57.760Z,11460
2023-03-20T10:34:13.953Z,11464
2023-03-20T10:35:30.147Z,11512
2023-03-20T10:36:45.357Z,11604
2023-03-20T10:37:50.000Z,11728
2023-03-20T10:39:17.744Z,11844
2023-03-20T10:40:34.189Z,11936
2023-03-20T10:41:38.000Z,12180
2023-03-20T10:43:06.324Z,12260
2023-03-20T10:44:22.772Z,12416
2023-03-20T10:45:38.957Z,12756
2023-03-20T10:46:54.905Z,12924
2023-03-20T10:48:11.099Z,12880
2023-03-20T10:49:27.292Z,12596
2023-03-20T10:49:59.000Z,10384
2023-03-20T10:50:32.000Z,11936
2023-03-20T10:51:59.679Z,11536
2023-03-20T10:53:03.000Z,11472
2023-03-20T10:54:31.083Z,10828
2023-03-20T10:56:52.000Z,10488
2023-03-20T10:58:19.664Z,10200
2023-03-20T10:59:36.113Z,8764
2023-03-20T11:00:40.000Z,7688
2023-03-20T11:02:08.493Z,6932
2023-03-20T11:03:24.691Z,6348
2023-03-20T11:04:40.631Z,6380
2023-03-20T11:05:57.072Z,6912
2023-03-20T11:07:13.018Z,7144
2023-03-20T11:08:29.212Z,7260
2023-03-20T11:09:45.405Z,7284
2023-03-20T11:11:00.615Z,7828
2023-03-20T11:12:16.809Z,8400
2023-03-20T11:13:33.003Z,8792
2023-03-20T11:14:49.443Z,8800
2023-03-20T11:15:54.000Z,8848
2023-03-20T11:17:21.832Z,8912
2023-03-20T11:18:38.032Z,9196
2023-03-20T11:19:42.000Z,9796
2023-03-20T11:20:58.000Z,10372
2023-03-20T11:22:26.358Z,10676
2023-03-20T11:23:42.552Z,10708
2023-03-20T11:24:59.000Z,10624
2023-03-20T11:26:14.939Z,10564
2023-03-20T11:26:47.000Z,9780
2023-03-20T11:27:30.149Z,10552
2023-03-20T11:28:03.000Z,9396
2023-03-20T11:28:35.000Z,10528
2023-03-20T11:30:02.789Z,10400
2023-03-20T11:31:07.000Z,10144
2023-03-20T11:31:52.000Z,8352
2023-03-20T11:35:07.309Z,9076
2023-03-20T11:36:23.503Z,8736
2023-03-20T11:38:55.890Z,8088
2023-03-20T11:40:12.336Z,7976
2023-03-20T11:41:28.277Z,7880
2023-03-20T11:42:44.713Z,7616
2023-03-20T11:43:59.938Z,7464
2023-03-20T11:45:16.136Z,7136
2023-03-20T11:46:32.067Z,6552
2023-03-20T11:47:48.260Z,6332
2023-03-20T11:49:04.706Z,6280
2023-03-20T11:50:20.647Z,6180
2023-03-20T11:51:36.841Z,6436
2023-03-20T11:52:53.035Z,6308
2023-03-20T11:53:57.000Z,6240
2023-03-20T11:55:25.422Z,6488
2023-03-20T11:57:37.286Z,6808
2023-03-20T11:57:58.065Z,7156
2023-03-20T11:59:14.003Z,7612
2023-03-20T12:00:30.445Z,8188
2023-03-20T12:01:34.000Z,8796
2023-03-20T12:03:01.604Z,9480
2023-03-20T12:04:17.798Z,9924
2023-03-20T12:05:33.991Z,10184
2023-03-20T12:06:50.185Z,10424
2023-03-20T12:07:55.000Z,10692
2023-03-20T12:09:11.000Z,11044
2023-03-20T12:10:38.765Z,11176
2023-03-20T12:11:55.208Z,11108
2023-03-20T12:13:11.152Z,11076
2023-03-20T12:14:27.346Z,11092
2023-03-20T12:15:43.792Z,11036
2023-03-20T12:16:59.733Z,11080
2023-03-20T12:18:03.000Z,11148
2023-03-20T12:19:19.000Z,11048
2023-03-20T12:20:36.000Z,10852
2023-03-20T12:21:52.000Z,10672
2023-03-20T12:23:19.716Z,10496
2023-03-20T12:24:35.193Z,10456
2023-03-20T12:25:39.000Z,10564
2023-03-20T12:27:06.339Z,10544
2023-03-20T12:28:21.560Z,10372
2023-03-20T12:30:27.267Z,10184
2023-03-20T12:30:52.242Z,10100
2023-03-20T12:31:24.000Z,12168
2023-03-20T12:32:07.200Z,10304
2023-03-20T12:33:23.641Z,10708
2023-03-20T12:34:28.000Z,11168
2023-03-20T12:35:55.781Z,11632
2023-03-20T12:38:28.411Z,12632
2023-03-20T12:39:33.000Z,12944
2023-03-20T12:41:00.810Z,12948
2023-03-20T12:42:16.749Z,12784
2023-03-20T12:43:32.943Z,12500
2023-03-20T12:44:49.137Z,12196
2023-03-20T12:46:05.330Z,11976
2023-03-20T12:47:21.769Z,11808
2023-03-20T12:48:37.717Z,11692
2023-03-20T12:49:53.174Z,11440
2023-03-20T12:51:09.121Z,11124
2023-03-20T12:52:25.315Z,11180
2023-03-20T12:53:41.768Z,11552
2023-03-20T12:54:57.702Z,11540
2023-03-20T12:56:13.895Z,11400
2023-03-20T12:56:45.000Z,12088
2023-03-20T12:57:17.000Z,11512
2023-03-20T12:58:33.000Z,11604
2023-03-20T12:59:49.000Z,11372
2023-03-20T13:01:05.000Z,11472
2023-03-20T13:03:49.100Z,12580
2023-03-20T13:05:24.602Z,12660
2023-03-20T13:05:36.000Z,12364
2023-03-20T13:06:21.487Z,12512
2023-03-20T13:06:52.000Z,12360
2023-03-20T13:07:36.706Z,12396
2023-03-20T13:08:51.917Z,12340
2023-03-20T13:09:56.000Z,12328
2023-03-20T13:13:56.691Z,12396
2023-03-20T13:14:30.000Z,12680
2023-03-20T13:15:01.000Z,12536
2023-03-20T13:16:29.326Z,12636
2023-03-20T13:17:45.521Z,12812
2023-03-20T13:19:01.465Z,12844
2023-03-20T13:21:33.852Z,12416
2023-03-20T13:22:50.045Z,12328
2023-03-20T13:24:06.239Z,12164
2023-03-20T13:25:10.000Z,11836
2023-03-20T13:26:37.643Z,11404
2023-03-20T13:27:53.836Z,10944
2023-03-20T13:29:10.030Z,10240
2023-03-20T13:30:26.469Z,9528
2023-03-20T13:31:42.666Z,9260
2023-03-20T13:32:58.611Z,9392
2023-03-20T13:34:14.805Z,9568
2023-03-20T13:35:19.000Z,9612
2023-03-20T13:36:35.000Z,9612
2023-03-20T13:37:52.000Z,9676
2023-03-20T13:39:08.000Z,9548
2023-03-20T13:40:35.772Z,9200
2023-03-20T13:41:51.966Z,8788
2023-03-20T13:43:28.285Z,8560
2023-03-20T13:44:23.371Z,8372
2023-03-20T13:45:39.564Z,8132
2023-03-20T13:46:56.010Z,7924
2023-03-20T13:48:00.000Z,7804
2023-03-20T13:49:28.145Z,7632
2023-03-20T13:50:33.000Z,7372
2023-03-20T13:51:17.000Z,7524
2023-03-20T13:52:00.532Z,7256
2023-03-20T13:53:16.725Z,7132
2023-03-20T13:54:32.918Z,7056
2023-03-20T13:55:49.112Z,7228
2023-03-20T13:58:21.499Z,7848
2023-03-20T13:59:36.719Z,7948
2023-03-20T14:00:40.000Z,7860
2023-03-20T14:02:08.124Z,7940
2023-03-20T14:03:12.000Z,8176
2023-03-20T14:04:39.537Z,8412
2023-03-20T14:05:54.746Z,8608
2023-03-20T14:07:10.941Z,8760
2023-03-20T14:08:27.135Z,8872
2023-03-20T14:09:43.328Z,8752
2023-03-20T14:10:59.522Z,8568
2023-03-20T14:12:15.715Z,8576
2023-03-20T14:13:32.157Z,8600
2023-03-20T14:14:48.102Z,8548
2023-03-20T14:16:04.295Z,8384
2023-03-20T14:17:20.741Z,8072
2023-03-20T14:18:36.682Z,7920
2023-03-20T14:19:53.126Z,8152
2023-03-20T14:21:09.069Z,8348
2023-03-20T14:22:24.280Z,8632
2023-03-20T14:23:29.000Z,9004
2023-03-20T14:24:56.917Z,9380
2023-03-20T14:26:12.859Z,9144
2023-03-20T14:27:29.053Z,9000
2023-03-20T14:28:33.000Z,9024
2023-03-20T14:30:01.441Z,9144
2023-03-20T14:31:17.634Z,8992
2023-03-20T14:32:33.828Z,8336
2023-03-20T14:33:50.021Z,8268
2023-03-20T14:35:06.215Z,8080
2023-03-20T14:35:38.000Z,6412
2023-03-20T14:36:22.408Z,7940
2023-03-20T14:37:38.602Z,7644
2023-03-20T14:38:11.000Z,7072
2023-03-20T14:38:42.000Z,7064
2023-03-20T14:40:10.252Z,6592
2023-03-20T14:42:42.392Z,6636
2023-03-20T14:45:14.779Z,7108
2023-03-20T14:46:31.222Z,6960
2023-03-20T14:47:47.166Z,7056
2023-03-20T14:49:03.359Z,7232
2023-03-20T14:50:19.552Z,7692
2023-03-20T14:51:24.000Z,7864
2023-03-20T14:52:51.939Z,7700
2023-03-20T14:53:56.000Z,7200
2023-03-20T14:55:24.326Z,6500
2023-03-20T14:56:39.536Z,5724
2023-03-20T14:57:55.729Z,5148
2023-03-20T14:59:11.923Z,4556
2023-03-20T15:00:28.116Z,4064
2023-03-20T15:01:44.310Z,3936
2023-03-20T15:03:00.504Z,3976
2023-03-20T15:04:15.724Z,4068
2023-03-20T15:05:31.918Z,4120
2023-03-20T15:06:35.000Z,4156
2023-03-20T15:07:18.000Z,5108
2023-03-20T15:08:03.567Z,4304
2023-03-20T15:09:19.764Z,4436
2023-03-20T15:10:35.955Z,4600
2023-03-20T15:11:51.172Z,4856
2023-03-20T15:14:22.331Z,5340
2023-03-20T15:15:38.524Z,5640
2023-03-20T15:16:54.718Z,5868
2023-03-20T15:18:10.912Z,5860
2023-03-20T15:19:15.000Z,5772
2023-03-20T15:20:43.299Z,5804
2023-03-20T15:21:59.493Z,5904
2023-03-20T15:23:15.686Z,6012
2023-03-20T15:24:31.880Z,6060
2023-03-20T15:25:48.319Z,6124
2023-03-20T15:27:04.267Z,6268
2023-03-20T15:28:20.461Z,6484
2023-03-20T15:29:35.671Z,6588
2023-03-20T15:30:52.119Z,6424
2023-03-20T15:31:56.000Z,6328
2023-03-20T15:33:24.251Z,6320
2023-03-20T15:34:40.445Z,6288
2023-03-20T15:35:56.638Z,6308
2023-03-20T15:37:12.832Z,6316
2023-03-20T15:38:29.025Z,6200
2023-03-20T15:39:45.219Z,6236
2023-03-20T15:41:01.412Z,6240
2023-03-20T15:41:33.000Z,7472
2023-03-20T15:42:17.606Z,6240
2023-03-20T15:43:33.799Z,6540
2023-03-20T15:44:49.993Z,6960
2023-03-20T15:46:06.186Z,7248
2023-03-20T15:48:26.000Z,7676
2023-03-20T15:49:42.000Z,7808
2023-03-20T15:51:10.228Z,7984
2023-03-20T15:52:26.171Z,8128
2023-03-20T15:53:42.364Z,8364
2023-03-20T15:54:58.558Z,8684
2023-03-20T15:56:14.994Z,7996
2023-03-20T15:57:19.000Z,7712
2023-03-20T15:58:47.138Z,7552
2023-03-20T16:00:03.332Z,6728
2023-03-20T16:01:19.526Z,5968
2023-03-20T16:02:35.965Z,5224
2023-03-20T16:03:50.930Z,4484
2023-03-20T16:05:07.369Z,4040
2023-03-20T16:06:23.566Z,3704
2023-03-20T16:06:55.000Z,3436
2023-03-20T16:07:28.000Z,3400
2023-03-20T16:08:44.000Z,3228
2023-03-20T16:10:00.000Z,3208
2023-03-20T16:11:28.090Z,3292
2023-03-20T16:13:58.520Z,3476
2023-03-20T16:15:14.714Z,3564
2023-03-20T16:16:30.907Z,3748
2023-03-20T16:17:46.383Z,3900
2023-03-20T16:19:01.592Z,3828
2023-03-20T16:20:17.540Z,3536
2023-03-20T16:21:33.988Z,3216
2023-03-20T16:22:38.000Z,3036
2023-03-20T16:24:06.120Z,2968
2023-03-20T16:25:10.000Z,2904
2023-03-20T16:26:38.508Z,2872
2023-03-20T16:27:54.948Z,2780
2023-03-20T16:29:11.147Z,2716
2023-03-20T16:30:27.088Z,2672
2023-03-20T16:31:43.281Z,2552
2023-03-20T16:32:59.475Z,2524
2023-03-20T16:34:15.908Z,2564
2023-03-20T16:35:19.000Z,2564
2023-03-20T16:36:47.073Z,2544
2023-03-20T16:38:03.516Z,2408
2023-03-20T16:39:19.461Z,2276
2023-03-20T16:40:35.654Z,2228
2023-03-20T16:41:51.848Z,2268
2023-03-20T16:43:08.041Z,2344
2023-03-20T16:44:23.513Z,2292
2023-03-20T16:45:27.000Z,2140
2023-03-20T16:46:54.666Z,2024
2023-03-20T16:48:11.111Z,1956
2023-03-20T16:49:27.303Z,1984
2023-03-20T16:50:43.247Z,2008
2023-03-20T16:51:59.441Z,1924
2023-03-20T16:53:15.635Z,1800
2023-03-20T16:54:31.828Z,1632
2023-03-20T16:55:48.022Z,1512
2023-03-20T16:57:03.242Z,1440
2023-03-20T16:58:18.452Z,1396
2023-03-20T16:59:34.645Z,1356
2023-03-20T17:00:39.000Z,1312
2023-03-20T17:02:07.032Z,1284
2023-03-20T17:03:11.000Z,1268
2023-03-20T17:04:39.420Z,1244
2023-03-20T17:05:44.000Z,1212
2023-03-20T17:07:11.807Z,1184
2023-03-20T17:08:28.001Z,1168
2023-03-20T17:09:44.195Z,1152
2023-03-20T17:11:00.388Z,1140
2023-03-20T17:12:16.582Z,1120
2023-03-20T17:13:21.000Z,1096
2023-03-20T17:14:48.970Z,1088
2023-03-20T17:15:52.000Z,1096
2023-03-20T17:17:20.374Z,1096
2023-03-20T17:18:36.568Z,1068
2023-03-20T17:19:53.009Z,1048